Tichnor, Arkansas
Current Conditions -  °F | °C
As of 11:55 AM on Saturday 20 Dec 2014 (Local Time) from KSGT Reporting Station
Overcast Overcast  
Wind Chill: 42°   Ceiling: 6000
Heat Index: 45°   Visibility: NA
Dew Point: 34°   Wind: 5mph
Humidity: 66%   Direction: 40°NE
Pressure: 30.27"   Gusts: NA
Location:  34.14°N, 91.27°W
Report Text: KSGT 201755Z 04004KT OVC060 07/01 A3027 RMK AO1 10070 20040 57007
Loading
Personal Weather Stations






























Interactive Weather Map New forecast layout! Learn more

10-Day Weather Forecast

Advertisements
Track Severe Weather on mobile